createdAt,value
2019-04-22T00:01:17.106Z,12.80
2019-04-22T00:03:50.665Z,12.80
2019-04-22T00:06:42.710Z,12.70
2019-04-22T00:09:11.474Z,12.70
2019-04-22T00:11:46.679Z,12.70
2019-04-22T00:14:05.620Z,12.60
2019-04-22T00:16:58.630Z,12.60
2019-04-22T00:21:46.590Z,12.60
2019-04-22T00:24:20.477Z,12.60
2019-04-22T00:26:49.994Z,12.60
2019-04-22T00:29:39.247Z,12.50
2019-04-22T00:32:05.619Z,12.50
2019-04-22T00:34:34.145Z,12.60
2019-04-22T00:37:07.932Z,12.60
2019-04-22T00:42:16.413Z,12.60
2019-04-22T00:44:45.149Z,12.50
2019-04-22T00:47:23.287Z,12.50
2019-04-22T00:50:14.570Z,12.60
2019-04-22T00:52:16.641Z,12.60
2019-04-22T00:54:56.795Z,12.60
2019-04-22T00:57:21.725Z,12.50
2019-04-22T00:59:55.385Z,12.50
2019-04-22T01:04:55.986Z,12.50
2019-04-22T01:07:25.372Z,12.50
2019-04-22T01:09:58.634Z,12.40
2019-04-22T01:12:26.333Z,12.40
2019-04-22T01:14:55.312Z,12.40
2019-04-22T01:17:27.666Z,12.40
2019-04-22T01:20:05.035Z,12.30
2019-04-22T01:22:28.308Z,12.30
2019-04-22T01:24:56.438Z,12.30
2019-04-22T01:27:20.509Z,12.30
2019-04-22T01:29:48.895Z,12.30
2019-04-22T01:32:15.460Z,12.30
2019-04-22T01:35:00.968Z,12.20
2019-04-22T01:37:28.851Z,12.20
2019-04-22T01:40:14.706Z,12.20
2019-04-22T01:42:44.370Z,12.10
2019-04-22T01:45:14.293Z,12.10
2019-04-22T01:47:47.081Z,12.10
2019-04-22T01:50:12.318Z,12.00
2019-04-22T01:52:47.332Z,12.00
2019-04-22T01:55:22.922Z,12.00
2019-04-22T01:57:45.629Z,11.90
2019-04-22T02:00:09.440Z,11.90
2019-04-22T02:02:48.968Z,11.90
2019-04-22T02:05:19.200Z,11.90
2019-04-22T02:07:51.544Z,11.80
2019-04-22T02:10:20.148Z,11.80
2019-04-22T02:12:53.228Z,11.80
2019-04-22T02:15:23.978Z,11.80
2019-04-22T02:17:56.145Z,11.80
2019-04-22T02:20:25.360Z,11.80
2019-04-22T02:23:39.899Z,11.70
2019-04-22T02:25:58.844Z,11.70
2019-04-22T02:28:34.231Z,11.70
2019-04-22T02:31:15.986Z,11.70
2019-04-22T02:34:01.709Z,11.60
2019-04-22T02:36:19.257Z,11.60
2019-04-22T02:41:16.017Z,11.60
2019-04-22T02:43:46.646Z,11.60
2019-04-22T02:48:53.419Z,11.50
2019-04-22T02:51:12.010Z,11.50
2019-04-22T03:01:16.273Z,11.30
2019-04-22T03:03:59.174Z,11.30
2019-04-22T03:19:02.945Z,10.80
2019-04-22T03:23:56.391Z,10.70
2019-04-22T03:32:24.652Z,10.50
2019-04-22T03:37:09.465Z,10.40
2019-04-22T03:42:05.577Z,10.30
2019-04-22T03:44:35.480Z,10.30
2019-04-22T03:47:07.393Z,10.20
2019-04-22T03:52:05.653Z,10.20
2019-04-22T03:54:45.745Z,10.20
2019-04-22T03:59:35.351Z,10.10
2019-04-22T04:02:01.862Z,10.10
2019-04-22T04:07:11.062Z,9.90
2019-04-22T04:09:33.883Z,9.90
2019-04-22T04:12:23.749Z,9.80
2019-04-22T04:14:37.380Z,9.70
2019-04-22T04:17:08.913Z,9.70
2019-04-22T04:22:09.764Z,9.50
2019-04-22T04:27:27.179Z,9.40
2019-04-22T04:29:54.726Z,9.40
2019-04-22T04:32:26.899Z,9.40
2019-04-22T04:35:24.010Z,9.40
2019-04-22T04:37:38.758Z,9.30
2019-04-22T04:42:26.033Z,9.30
2019-04-22T04:47:29.523Z,9.30
2019-04-22T04:52:27.669Z,9.40
2019-04-22T04:57:23.971Z,9.50
2019-04-22T05:00:32.879Z,9.50
2019-04-22T05:05:04.238Z,9.60
2019-04-22T05:07:30.866Z,9.60
2019-04-22T05:09:51.585Z,9.70
2019-04-22T05:12:34.371Z,9.80
2019-04-22T05:14:55.060Z,9.80
2019-04-22T05:17:25.553Z,9.90
2019-04-22T05:19:57.130Z,9.90
2019-04-22T05:22:28.276Z,10.10
2019-04-22T05:24:58.322Z,10.10
2019-04-22T05:27:28.079Z,10.20
2019-04-22T05:30:10.075Z,10.30
2019-04-22T05:32:24.734Z,10.40
2019-04-22T05:34:57.588Z,10.50
2019-04-22T05:37:27.682Z,10.60
2019-04-22T05:39:56.365Z,10.70
2019-04-22T05:42:26.369Z,10.80
2019-04-22T05:45:04.580Z,10.80
2019-04-22T05:50:06.054Z,11.00
2019-04-22T05:52:41.407Z,11.10
2019-04-22T05:55:06.337Z,11.20
2019-04-22T05:57:34.405Z,11.30
2019-04-22T06:00:08.100Z,11.40
2019-04-22T06:02:48.279Z,11.50
2019-04-22T06:05:11.720Z,11.60
2019-04-22T06:07:32.537Z,11.70
2019-04-22T06:10:11.709Z,11.80
2019-04-22T06:12:35.350Z,11.90
2019-04-22T06:15:12.080Z,12.00
2019-04-22T06:17:47.303Z,12.10
2019-04-22T06:20:20.214Z,12.30
2019-04-22T06:22:50.383Z,12.40
2019-04-22T06:27:52.425Z,12.60
2019-04-22T06:30:20.606Z,12.70
2019-04-22T06:32:51.774Z,12.80
2019-04-22T06:35:34.486Z,13.00
2019-04-22T06:38:09.982Z,13.10
2019-04-22T06:40:28.946Z,13.20
2019-04-22T06:42:58.587Z,13.30
2019-04-22T06:45:24.945Z,13.50
2019-04-22T06:48:13.153Z,13.50
2019-04-22T06:50:32.812Z,13.70
2019-04-22T06:52:57.197Z,13.80
2019-04-22T06:55:40.194Z,13.90
2019-04-22T06:58:00.163Z,13.90
2019-04-22T07:00:32.326Z,14.00
2019-04-22T07:05:37.734Z,14.20
2019-04-22T07:08:18.277Z,14.30
2019-04-22T07:13:07.111Z,14.40
2019-04-22T07:15:46.702Z,14.50
2019-04-22T07:18:11.945Z,14.60
2019-04-22T07:20:42.218Z,14.70
2019-04-22T07:23:19.163Z,14.80
2019-04-22T07:25:41.378Z,14.80
2019-04-22T07:28:11.286Z,14.90
2019-04-22T07:30:41.123Z,15.00
2019-04-22T07:38:20.572Z,15.60
2019-04-22T07:43:19.912Z,16.10
2019-04-22T07:45:51.856Z,16.40
2019-04-22T07:48:26.513Z,16.60
2019-04-22T07:50:55.819Z,17.00
2019-04-22T07:53:15.709Z,17.30
2019-04-22T07:55:54.450Z,17.50
2019-04-22T07:58:26.033Z,17.70
2019-04-22T08:00:57.761Z,17.90
2019-04-22T08:03:29.316Z,18.00
2019-04-22T08:06:08.660Z,18.20
2019-04-22T08:08:29.274Z,18.40
2019-04-22T08:11:21.555Z,18.60
2019-04-22T08:13:30.857Z,18.80
2019-04-22T08:15:58.866Z,19.00
2019-04-22T08:23:37.433Z,19.50
2019-04-22T08:26:00.859Z,19.70
2019-04-22T08:28:37.901Z,19.80
2019-04-22T08:31:10.839Z,19.90
2019-04-22T08:33:33.342Z,20.00
2019-04-22T08:38:42.035Z,20.20
2019-04-22T08:41:28.437Z,20.40
2019-04-22T08:43:57.792Z,20.60
2019-04-22T08:46:27.340Z,20.70
2019-04-22T08:48:57.305Z,20.80
2019-04-22T08:51:28.227Z,20.90
2019-04-22T08:54:00.143Z,20.90
2019-04-22T08:56:33.784Z,21.00
2019-04-22T08:59:04.746Z,21.10
2019-04-22T09:01:27.071Z,21.20
2019-04-22T09:04:02.389Z,21.40
2019-04-22T09:06:47.856Z,21.60
2019-04-22T09:11:41.434Z,21.90
2019-04-22T09:14:06.528Z,22.00
2019-04-22T09:16:39.649Z,22.20
2019-04-22T09:19:05.918Z,22.40
2019-04-22T09:21:43.428Z,22.50
2019-04-22T09:24:13.106Z,22.70
2019-04-22T09:26:42.058Z,22.80
2019-04-22T09:29:14.567Z,22.80
2019-04-22T09:32:00.321Z,23.00
2019-04-22T09:34:10.069Z,23.20
2019-04-22T09:36:40.720Z,23.30
2019-04-22T09:39:19.643Z,23.50
2019-04-22T09:41:48.366Z,23.60
2019-04-22T09:44:09.318Z,23.70
2019-04-22T09:46:47.327Z,23.80
2019-04-22T09:49:19.609Z,23.90
2019-04-22T09:51:44.868Z,24.00
2019-04-22T09:54:22.018Z,24.10
2019-04-22T09:56:51.771Z,24.20
2019-04-22T09:59:21.117Z,24.30
2019-04-22T10:01:59.716Z,24.30
2019-04-22T10:04:20.152Z,24.30
2019-04-22T10:06:54.430Z,24.50
2019-04-22T10:09:52.824Z,24.60
2019-04-22T10:11:50.879Z,24.60
2019-04-22T10:14:28.500Z,24.60
2019-04-22T10:16:54.038Z,24.60
2019-04-22T10:19:23.495Z,24.70
2019-04-22T10:24:30.115Z,24.60
2019-04-22T10:27:00.313Z,24.50
2019-04-22T10:29:38.602Z,24.50
2019-04-22T10:32:02.134Z,24.60
2019-04-22T10:34:19.160Z,24.80
2019-04-22T10:36:37.947Z,25.10
2019-04-22T10:39:08.663Z,25.20
2019-04-22T10:41:38.915Z,25.20
2019-04-22T10:44:08.789Z,25.20
2019-04-22T10:46:38.231Z,25.40
2019-04-22T10:49:08.362Z,25.30
2019-04-22T10:51:37.743Z,25.20
2019-04-22T10:54:07.418Z,25.10
2019-04-22T10:56:37.007Z,25.10
2019-04-22T10:59:06.834Z,25.00
2019-04-22T11:01:38.522Z,25.00
2019-04-22T11:04:07.064Z,25.00
2019-04-22T11:06:41.003Z,25.10
2019-04-22T11:09:08.690Z,25.10
2019-04-22T11:11:48.836Z,25.20
2019-04-22T11:14:10.696Z,25.10
2019-04-22T11:16:41.396Z,25.20
2019-04-22T11:19:11.854Z,25.30
2019-04-22T11:21:41.419Z,25.30
2019-04-22T11:24:10.725Z,25.30
2019-04-22T11:26:41.037Z,25.10
2019-04-22T11:29:11.973Z,25.00
2019-04-22T11:31:42.317Z,24.90
2019-04-22T11:34:12.929Z,24.90
2019-04-22T11:36:43.019Z,25.00
2019-04-22T11:39:13.679Z,24.90
2019-04-22T11:41:44.306Z,24.90
2019-04-22T11:44:15.071Z,25.10
2019-04-22T11:46:45.264Z,25.30
2019-04-22T11:49:16.098Z,25.30
2019-04-22T11:51:45.758Z,25.30
2019-04-22T11:54:15.055Z,25.30
2019-04-22T11:56:45.216Z,25.50
2019-04-22T11:59:15.178Z,25.60
2019-04-22T12:01:44.675Z,25.60
2019-04-22T12:04:13.920Z,25.70
2019-04-22T12:06:44.145Z,25.80
2019-04-22T12:09:15.457Z,25.90
2019-04-22T12:11:44.643Z,25.90
2019-04-22T12:14:13.981Z,26.00
2019-04-22T12:16:43.630Z,26.20
2019-04-22T12:19:13.321Z,26.20
2019-04-22T12:21:42.647Z,26.40
2019-04-22T12:24:13.073Z,26.60
2019-04-22T12:26:42.499Z,26.70
2019-04-22T12:29:13.074Z,26.80
2019-04-22T12:31:42.482Z,27.10
2019-04-22T12:34:11.651Z,27.30
2019-04-22T12:36:42.386Z,27.90
2019-04-22T12:39:11.876Z,28.60
2019-04-22T12:41:42.369Z,29.20
2019-04-22T12:44:11.774Z,29.70
2019-04-22T12:46:42.037Z,30.20
2019-04-22T12:49:12.139Z,30.40
2019-04-22T12:51:42.865Z,30.30
2019-04-22T12:54:13.153Z,30.30
2019-04-22T12:56:43.869Z,30.40
2019-04-22T12:59:13.940Z,30.30
2019-04-22T13:01:44.662Z,30.30
2019-04-22T13:04:17.253Z,30.30
2019-04-22T13:06:46.073Z,30.40
2019-04-22T13:09:17.600Z,30.40
2019-04-22T13:11:46.267Z,30.40
2019-04-22T13:14:16.721Z,30.30
2019-04-22T13:16:47.281Z,30.10
2019-04-22T13:19:18.895Z,30.10
2019-04-22T13:21:48.875Z,30.10
2019-04-22T13:24:19.866Z,30.40
2019-04-22T13:26:48.993Z,30.60
2019-04-22T13:29:19.249Z,30.60
2019-04-22T13:31:50.913Z,30.90
2019-04-22T13:34:29.504Z,31.20
2019-04-22T13:36:51.334Z,31.40
2019-04-22T13:39:22.834Z,31.00
2019-04-22T13:41:56.556Z,30.60
2019-04-22T13:44:23.129Z,30.20
2019-04-22T13:47:11.623Z,29.90
2019-04-22T13:50:01.119Z,29.40
2019-04-22T13:52:35.674Z,29.00
2019-04-22T13:54:58.689Z,28.60
2019-04-22T13:57:15.761Z,28.40
2019-04-22T13:59:33.459Z,28.20
2019-04-22T14:02:35.144Z,28.00
2019-04-22T14:05:06.401Z,28.10
2019-04-22T14:07:37.010Z,27.90
2019-04-22T14:10:08.707Z,27.90
2019-04-22T14:12:39.115Z,27.90
2019-04-22T14:15:09.946Z,27.70
2019-04-22T14:17:39.220Z,27.60
2019-04-22T14:20:09.023Z,27.60
2019-04-22T14:22:38.870Z,27.50
2019-04-22T14:25:08.311Z,27.50
2019-04-22T14:27:47.877Z,27.50
2019-04-22T14:30:08.779Z,27.50
2019-04-22T14:32:39.583Z,27.50
2019-04-22T14:35:11.232Z,27.50
2019-04-22T14:37:40.551Z,27.40
2019-04-22T14:40:12.329Z,27.30
2019-04-22T14:43:03.700Z,27.30
2019-04-22T14:45:41.848Z,27.20
2019-04-22T14:48:07.242Z,27.00
2019-04-22T14:50:35.494Z,26.80
2019-04-22T14:53:05.399Z,26.70
2019-04-22T14:55:23.134Z,26.60
2019-04-22T14:57:49.024Z,26.60
2019-04-22T15:00:19.812Z,26.50
2019-04-22T15:02:49.894Z,26.50
2019-04-22T15:05:19.483Z,26.40
2019-04-22T15:07:49.893Z,26.40
2019-04-22T15:10:20.195Z,26.60
2019-04-22T15:12:52.690Z,26.80
2019-04-22T15:15:31.919Z,26.90
2019-04-22T15:18:07.992Z,27.10
2019-04-22T15:20:47.495Z,27.30
2019-04-22T15:23:16.763Z,27.30
2019-04-22T15:25:46.472Z,27.30
2019-04-22T15:28:15.755Z,27.40
2019-04-22T15:30:45.697Z,27.40
2019-04-22T15:33:15.297Z,27.30
2019-04-22T15:35:45.201Z,27.00
2019-04-22T15:38:15.564Z,26.90
2019-04-22T15:40:45.123Z,26.80
2019-04-22T15:43:14.979Z,26.60
2019-04-22T15:45:44.252Z,26.50
2019-04-22T15:48:14.682Z,26.30
2019-04-22T15:50:44.709Z,26.00
2019-04-22T15:53:14.021Z,25.70
2019-04-22T15:55:43.230Z,25.40
2019-04-22T15:58:12.418Z,25.20
2019-04-22T16:00:54.006Z,24.90
2019-04-22T16:03:12.606Z,24.60
2019-04-22T16:05:41.971Z,24.40
2019-04-22T16:08:11.163Z,24.20
2019-04-22T16:10:41.922Z,23.90
2019-04-22T16:13:19.173Z,23.80
2019-04-22T16:15:42.736Z,23.70
2019-04-22T16:18:14.623Z,23.50
2019-04-22T16:20:43.910Z,23.40
2019-04-22T16:23:42.360Z,23.20
2019-04-22T16:26:20.306Z,23.20
2019-04-22T16:28:52.359Z,23.10
2019-04-22T16:31:21.796Z,23.00
2019-04-22T16:33:52.475Z,22.90
2019-04-22T16:36:22.758Z,22.90
2019-04-22T16:38:53.261Z,22.80
2019-04-22T16:41:22.483Z,22.80
2019-04-22T16:43:51.755Z,22.70
2019-04-22T16:46:21.399Z,22.70
2019-04-22T16:48:51.780Z,22.60
2019-04-22T16:51:22.258Z,22.50
2019-04-22T16:53:51.551Z,22.40
2019-04-22T16:56:20.787Z,22.30
2019-04-22T16:58:50.695Z,22.10
2019-04-22T17:01:50.401Z,22.00
2019-04-22T17:04:51.368Z,21.80
2019-04-22T17:07:22.359Z,21.60
2019-04-22T17:09:52.170Z,21.40
2019-04-22T17:12:21.760Z,21.20
2019-04-22T17:14:58.023Z,21.10
2019-04-22T17:17:22.650Z,21.00
2019-04-22T17:19:53.189Z,20.80
2019-04-22T17:22:23.753Z,20.80
2019-04-22T17:24:54.047Z,20.70
2019-04-22T17:27:24.385Z,20.60
2019-04-22T17:29:54.637Z,20.50
2019-04-22T17:32:26.570Z,20.50
2019-04-22T17:34:54.755Z,20.40
2019-04-22T17:37:28.057Z,20.40
2019-04-22T17:40:13.221Z,20.30
2019-04-22T17:42:46.414Z,20.20
2019-04-22T17:45:46.370Z,20.20
2019-04-22T17:48:35.776Z,20.10
2019-04-22T17:51:10.629Z,20.00
2019-04-22T17:53:40.197Z,20.00
2019-04-22T17:56:10.626Z,19.90
2019-04-22T17:58:45.134Z,19.90
2019-04-22T18:01:09.279Z,19.80
2019-04-22T18:03:29.017Z,19.80
2019-04-22T18:05:58.208Z,19.70
2019-04-22T18:08:40.781Z,19.70
2019-04-22T18:11:14.630Z,19.60
2019-04-22T18:13:44.655Z,19.50
2019-04-22T18:16:19.546Z,19.40
2019-04-22T18:18:47.599Z,19.40
2019-04-22T18:21:13.079Z,19.30
2019-04-22T18:23:36.025Z,19.30
2019-04-22T18:26:18.791Z,19.20
2019-04-22T18:28:49.313Z,19.20
2019-04-22T18:31:16.168Z,19.10
2019-04-22T18:33:49.004Z,19.00
2019-04-22T18:36:19.295Z,19.00
2019-04-22T18:38:58.435Z,18.90
2019-04-22T18:41:19.650Z,18.80
2019-04-22T18:43:58.888Z,18.70
2019-04-22T18:46:26.358Z,18.70
2019-04-22T18:48:55.708Z,18.60
2019-04-22T18:51:39.716Z,18.50
2019-04-22T18:54:14.740Z,18.50
2019-04-22T18:56:46.583Z,18.40
2019-04-22T18:59:08.250Z,18.40
2019-04-22T19:01:28.313Z,18.30
2019-04-22T19:04:08.494Z,18.20
2019-04-22T19:06:55.117Z,18.20
2019-04-22T19:09:21.064Z,18.10
2019-04-22T19:12:03.148Z,18.10
2019-04-22T19:14:24.226Z,18.00
2019-04-22T19:16:55.859Z,18.00
2019-04-22T19:19:38.033Z,17.90
2019-04-22T19:21:56.102Z,17.90
2019-04-22T19:24:22.923Z,17.80
2019-04-22T19:26:58.848Z,17.80
2019-04-22T19:29:33.683Z,17.70
2019-04-22T19:31:56.927Z,17.70
2019-04-22T19:34:30.861Z,17.60
2019-04-22T19:37:02.070Z,17.60
2019-04-22T19:39:28.784Z,17.50
2019-04-22T19:42:12.463Z,17.50
2019-04-22T19:44:36.659Z,17.40
2019-04-22T19:47:21.080Z,17.30
2019-04-22T19:49:39.497Z,17.30
2019-04-22T19:52:15.685Z,17.30
2019-04-22T19:54:38.908Z,17.20
2019-04-22T19:57:03.697Z,17.20
2019-04-22T19:59:42.550Z,17.20
2019-04-22T20:02:44.766Z,17.10
2019-04-22T20:05:47.903Z,17.10
2019-04-22T20:08:21.338Z,17.00
2019-04-22T20:10:48.885Z,16.90
2019-04-22T20:13:28.867Z,16.80
2019-04-22T20:15:43.399Z,16.80
2019-04-22T20:20:59.203Z,16.70
2019-04-22T20:23:21.051Z,16.60
2019-04-22T20:25:49.287Z,16.60
2019-04-22T20:28:24.237Z,16.50
2019-04-22T20:30:56.011Z,16.50
2019-04-22T20:33:29.215Z,16.40
2019-04-22T20:35:58.278Z,16.40
2019-04-22T20:38:25.862Z,16.30
2019-04-22T20:40:55.029Z,16.30
2019-04-22T20:43:35.662Z,16.20
2019-04-22T20:46:05.907Z,16.10
2019-04-22T20:48:37.959Z,16.10
2019-04-22T20:51:04.090Z,16.10
2019-04-22T20:53:36.495Z,16.00
2019-04-22T20:56:08.399Z,16.00
2019-04-22T20:58:42.183Z,15.90
2019-04-22T21:00:59.850Z,15.90
2019-04-22T21:03:27.427Z,15.80
2019-04-22T21:06:00.743Z,15.80
2019-04-22T21:08:45.093Z,15.70
2019-04-22T21:11:04.230Z,15.70
2019-04-22T21:13:34.931Z,15.60
2019-04-22T21:16:20.426Z,15.60
2019-04-22T21:18:36.368Z,15.50
2019-04-22T21:21:13.449Z,15.50
2019-04-22T21:23:39.425Z,15.40
2019-04-22T21:26:13.799Z,15.40
2019-04-22T21:28:47.753Z,15.40
2019-04-22T21:31:19.214Z,15.30
2019-04-22T21:33:48.970Z,15.30
2019-04-22T21:36:25.428Z,15.30
2019-04-22T21:38:51.934Z,15.20
2019-04-22T21:41:20.502Z,15.20
2019-04-22T21:43:52.696Z,15.10
2019-04-22T21:46:27.012Z,15.10
2019-04-22T21:48:52.808Z,15.10
2019-04-22T21:51:25.697Z,15.00
2019-04-22T21:56:41.045Z,14.90
2019-04-22T21:59:01.845Z,14.90
2019-04-22T22:01:49.480Z,14.80
2019-04-22T22:04:12.799Z,14.80
2019-04-22T22:06:37.347Z,14.70
2019-04-22T22:09:15.213Z,14.70
2019-04-22T22:11:38.653Z,14.70
2019-04-22T22:14:14.919Z,14.60
2019-04-22T22:16:40.414Z,14.60
2019-04-22T22:19:15.065Z,14.50
2019-04-22T22:21:51.124Z,14.50
2019-04-22T22:24:23.147Z,14.40
2019-04-22T22:26:50.174Z,14.40
2019-04-22T22:29:31.417Z,14.40
2019-04-22T22:31:56.107Z,14.40
2019-04-22T22:34:24.825Z,14.30
2019-04-22T22:36:47.582Z,14.30
2019-04-22T22:39:17.412Z,14.30
2019-04-22T22:41:34.134Z,14.30
2019-04-22T22:44:14.078Z,14.30
2019-04-22T22:46:51.615Z,14.20
2019-04-22T22:49:29.881Z,14.20
2019-04-22T22:52:13.203Z,14.20
2019-04-22T22:54:33.095Z,14.10
2019-04-22T22:57:00.453Z,14.10
2019-04-22T22:59:37.240Z,14.10
2019-04-22T23:01:55.675Z,14.00
2019-04-22T23:04:37.642Z,14.00
2019-04-22T23:07:03.288Z,14.00
2019-04-22T23:09:30.756Z,14.00
2019-04-22T23:12:17.347Z,14.00
2019-04-22T23:14:32.690Z,13.90
2019-04-22T23:16:52.484Z,13.90
2019-04-22T23:19:15.729Z,13.80
2019-04-22T23:21:49.614Z,13.80
2019-04-22T23:24:48.238Z,13.80
2019-04-22T23:27:26.251Z,13.70
2019-04-22T23:30:23.911Z,13.70
2019-04-22T23:33:07.805Z,13.70
2019-04-22T23:35:53.128Z,13.70
2019-04-22T23:38:35.778Z,13.60
2019-04-22T23:41:01.657Z,13.60
2019-04-22T23:43:34.173Z,13.50
2019-04-22T23:46:02.375Z,13.50
2019-04-22T23:48:29.527Z,13.50
2019-04-22T23:51:12.089Z,13.50
2019-04-22T23:53:57.260Z,13.50
2019-04-22T23:56:11.076Z,13.50
